Frydek, Texas
Current Conditions -  °F | °C
As of 11:55 AM on Tuesday 21 Oct 2014 (Local Time) from KELA Reporting Station
Clear Clear  
Wind Chill: 78°   Ceiling: Unl
Heat Index: 79°   Visibility: 10mi
Dew Point: 55°   Wind: 8mph
Humidity: 45%   Direction: 80°E
Pressure: 30.06"   Gusts: NA
Location:  29.7835°N, 96.2064°W
Report Text: KELA 211655Z AUTO 08007KT 070V130 10SM CLR 25/13 A3006 RMK AO2 T02530125
Loading
Personal Weather Stations






























Interactive Weather Map
Tropical Storm Tracking
New forecast layout! Learn more

10-Day Weather Forecast

Advertisements
Track Severe Weather on mobile